Terminal Aerodrome Forecast
Issued by NWS

Home | Current Version | Previous Version | Text Only | Print | Product List | Glossary On
Versions: 1 2 3 4 5 6 7 8 9 10 11 12 13 14 15 16 17 18 19
000
FTUS43 KGRB 050530
TAFCWA
TAF
KCWA 050530Z 0506/0606 15005KT 5SM BR SCT020 SCT200
     FM050700 15003KT 3SM BR SCT005 BKN012
      TEMPO 0509/0513 1/2SM FG BKN002
     FM051500 16005KT P6SM BKN020
     FM051800 20009KT P6SM BKN035
     FM052200 19007KT P6SM SCT035=

USA.gov is the U.S. government's official web portal to all federal, state and local government web resources and services.